sensor_id;sensor_type;location;lat;lon;timestamp;P1;durP1;ratioP1;P2;durP2;ratioP2
32633;SDS011;19043;51.012;5.648;2023-11-22T00:00:57;19.38;;;12.70;;
32633;SDS011;19043;51.012;5.648;2023-11-22T00:03:22;19.20;;;13.07;;
32633;SDS011;19043;51.012;5.648;2023-11-22T00:05:50;19.13;;;12.57;;
32633;SDS011;19043;51.012;5.648;2023-11-22T00:08:16;20.77;;;13.57;;
32633;SDS011;19043;51.012;5.648;2023-11-22T00:10:42;21.48;;;13.68;;
32633;SDS011;19043;51.012;5.648;2023-11-22T00:13:08;21.25;;;12.45;;
32633;SDS011;19043;51.012;5.648;2023-11-22T00:15:33;22.25;;;13.25;;
32633;SDS011;19043;51.012;5.648;2023-11-22T00:17:58;20.30;;;12.77;;
32633;SDS011;19043;51.012;5.648;2023-11-22T00:20:27;23.92;;;13.07;;
32633;SDS011;19043;51.012;5.648;2023-11-22T00:22:53;24.33;;;13.20;;
32633;SDS011;19043;51.012;5.648;2023-11-22T00:25:18;19.33;;;12.17;;
32633;SDS011;19043;51.012;5.648;2023-11-22T00:27:44;20.30;;;12.25;;
32633;SDS011;19043;51.012;5.648;2023-11-22T00:30:09;18.98;;;12.13;;
32633;SDS011;19043;51.012;5.648;2023-11-22T00:32:35;24.25;;;12.38;;
32633;SDS011;19043;51.012;5.648;2023-11-22T00:35:00;20.15;;;11.90;;
32633;SDS011;19043;51.012;5.648;2023-11-22T00:37:25;21.13;;;12.90;;
32633;SDS011;19043;51.012;5.648;2023-11-22T00:39:51;21.08;;;13.30;;
32633;SDS011;19043;51.012;5.648;2023-11-22T00:42:16;17.45;;;11.93;;
32633;SDS011;19043;51.012;5.648;2023-11-22T00:44:44;20.48;;;12.85;;
32633;SDS011;19043;51.012;5.648;2023-11-22T00:47:10;20.92;;;12.95;;
32633;SDS011;19043;51.012;5.648;2023-11-22T00:49:35;17.63;;;11.45;;
32633;SDS011;19043;51.012;5.648;2023-11-22T00:52:00;19.73;;;12.30;;
32633;SDS011;19043;51.012;5.648;2023-11-22T00:54:25;21.30;;;12.55;;
32633;SDS011;19043;51.012;5.648;2023-11-22T00:56:51;20.75;;;11.85;;
32633;SDS011;19043;51.012;5.648;2023-11-22T00:59:16;19.48;;;12.15;;
32633;SDS011;19043;51.012;5.648;2023-11-22T01:01:41;18.77;;;11.75;;
32633;SDS011;19043;51.012;5.648;2023-11-22T01:04:06;18.95;;;12.30;;
32633;SDS011;19043;51.012;5.648;2023-11-22T01:06:32;23.15;;;13.48;;
32633;SDS011;19043;51.012;5.648;2023-11-22T01:08:58;21.17;;;13.43;;
32633;SDS011;19043;51.012;5.648;2023-11-22T01:11:23;24.40;;;13.90;;
32633;SDS011;19043;51.012;5.648;2023-11-22T01:13:48;25.23;;;13.50;;
32633;SDS011;19043;51.012;5.648;2023-11-22T01:16:13;22.50;;;13.57;;
32633;SDS011;19043;51.012;5.648;2023-11-22T01:18:39;26.77;;;12.90;;
32633;SDS011;19043;51.012;5.648;2023-11-22T01:21:04;21.67;;;14.18;;
32633;SDS011;19043;51.012;5.648;2023-11-22T01:23:30;22.58;;;13.80;;
32633;SDS011;19043;51.012;5.648;2023-11-22T01:25:57;20.90;;;13.50;;
32633;SDS011;19043;51.012;5.648;2023-11-22T01:28:22;24.58;;;13.60;;
32633;SDS011;19043;51.012;5.648;2023-11-22T01:30:47;22.85;;;13.35;;
32633;SDS011;19043;51.012;5.648;2023-11-22T01:33:14;24.52;;;14.18;;
32633;SDS011;19043;51.012;5.648;2023-11-22T01:35:39;26.58;;;14.65;;
32633;SDS011;19043;51.012;5.648;2023-11-22T01:38:04;25.57;;;14.70;;
32633;SDS011;19043;51.012;5.648;2023-11-22T01:40:30;25.65;;;13.65;;
32633;SDS011;19043;51.012;5.648;2023-11-22T01:42:55;24.00;;;14.68;;
32633;SDS011;19043;51.012;5.648;2023-11-22T01:45:21;27.05;;;15.68;;
32633;SDS011;19043;51.012;5.648;2023-11-22T01:47:46;27.40;;;15.10;;
32633;SDS011;19043;51.012;5.648;2023-11-22T01:50:11;27.48;;;15.55;;
32633;SDS011;19043;51.012;5.648;2023-11-22T01:52:37;28.48;;;15.95;;
32633;SDS011;19043;51.012;5.648;2023-11-22T01:55:03;25.25;;;15.07;;
32633;SDS011;19043;51.012;5.648;2023-11-22T01:57:32;24.23;;;15.00;;
32633;SDS011;19043;51.012;5.648;2023-11-22T01:59:59;29.52;;;15.02;;
32633;SDS011;19043;51.012;5.648;2023-11-22T02:02:25;25.90;;;15.38;;
32633;SDS011;19043;51.012;5.648;2023-11-22T02:04:50;25.20;;;14.68;;
32633;SDS011;19043;51.012;5.648;2023-11-22T02:07:15;24.33;;;15.00;;
32633;SDS011;19043;51.012;5.648;2023-11-22T02:09:41;27.70;;;15.77;;
32633;SDS011;19043;51.012;5.648;2023-11-22T02:12:07;30.20;;;15.80;;
32633;SDS011;19043;51.012;5.648;2023-11-22T02:14:33;31.85;;;15.93;;
32633;SDS011;19043;51.012;5.648;2023-11-22T02:16:59;29.55;;;15.70;;
32633;SDS011;19043;51.012;5.648;2023-11-22T02:19:24;28.17;;;15.07;;
32633;SDS011;19043;51.012;5.648;2023-11-22T02:21:50;24.92;;;16.00;;
32633;SDS011;19043;51.012;5.648;2023-11-22T02:24:17;28.40;;;15.70;;
32633;SDS011;19043;51.012;5.648;2023-11-22T02:26:45;24.50;;;15.05;;
32633;SDS011;19043;51.012;5.648;2023-11-22T02:29:11;26.98;;;15.48;;
32633;SDS011;19043;51.012;5.648;2023-11-22T02:31:37;29.83;;;16.25;;
32633;SDS011;19043;51.012;5.648;2023-11-22T02:34:02;23.85;;;15.20;;
32633;SDS011;19043;51.012;5.648;2023-11-22T02:36:27;27.27;;;14.50;;
32633;SDS011;19043;51.012;5.648;2023-11-22T02:38:53;30.08;;;16.23;;
32633;SDS011;19043;51.012;5.648;2023-11-22T02:41:19;27.42;;;15.80;;
32633;SDS011;19043;51.012;5.648;2023-11-22T02:43:44;22.73;;;14.93;;
32633;SDS011;19043;51.012;5.648;2023-11-22T02:46:11;25.13;;;15.57;;
32633;SDS011;19043;51.012;5.648;2023-11-22T02:48:36;25.45;;;15.60;;
32633;SDS011;19043;51.012;5.648;2023-11-22T02:51:02;28.42;;;15.50;;
32633;SDS011;19043;51.012;5.648;2023-11-22T02:53:27;26.63;;;15.60;;
32633;SDS011;19043;51.012;5.648;2023-11-22T02:55:55;25.30;;;15.90;;
32633;SDS011;19043;51.012;5.648;2023-11-22T02:58:23;28.33;;;15.68;;
32633;SDS011;19043;51.012;5.648;2023-11-22T03:00:48;26.90;;;16.48;;
32633;SDS011;19043;51.012;5.648;2023-11-22T03:03:14;25.48;;;16.33;;
32633;SDS011;19043;51.012;5.648;2023-11-22T03:05:39;28.48;;;16.38;;
32633;SDS011;19043;51.012;5.648;2023-11-22T03:08:05;26.27;;;15.20;;
32633;SDS011;19043;51.012;5.648;2023-11-22T03:10:32;22.90;;;14.85;;
32633;SDS011;19043;51.012;5.648;2023-11-22T03:12:57;27.15;;;16.35;;
32633;SDS011;19043;51.012;5.648;2023-11-22T03:15:22;28.83;;;15.90;;
32633;SDS011;19043;51.012;5.648;2023-11-22T03:17:47;27.95;;;15.90;;
32633;SDS011;19043;51.012;5.648;2023-11-22T03:20:13;30.60;;;16.13;;
32633;SDS011;19043;51.012;5.648;2023-11-22T03:22:39;27.27;;;16.60;;
32633;SDS011;19043;51.012;5.648;2023-11-22T03:25:04;24.23;;;15.55;;
32633;SDS011;19043;51.012;5.648;2023-11-22T03:27:30;28.10;;;15.68;;
32633;SDS011;19043;51.012;5.648;2023-11-22T03:29:55;25.35;;;15.32;;
32633;SDS011;19043;51.012;5.648;2023-11-22T03:32:20;29.80;;;17.70;;
32633;SDS011;19043;51.012;5.648;2023-11-22T03:34:46;25.35;;;15.80;;
32633;SDS011;19043;51.012;5.648;2023-11-22T03:37:12;29.70;;;17.20;;
32633;SDS011;19043;51.012;5.648;2023-11-22T03:39:37;24.88;;;14.93;;
32633;SDS011;19043;51.012;5.648;2023-11-22T03:42:02;30.88;;;16.52;;
32633;SDS011;19043;51.012;5.648;2023-11-22T03:44:28;30.63;;;16.38;;
32633;SDS011;19043;51.012;5.648;2023-11-22T03:46:53;28.50;;;16.80;;
32633;SDS011;19043;51.012;5.648;2023-11-22T03:49:18;29.60;;;16.42;;
32633;SDS011;19043;51.012;5.648;2023-11-22T03:51:44;27.03;;;15.97;;
32633;SDS011;19043;51.012;5.648;2023-11-22T03:54:09;33.60;;;17.75;;
32633;SDS011;19043;51.012;5.648;2023-11-22T03:56:36;27.17;;;15.95;;
32633;SDS011;19043;51.012;5.648;2023-11-22T03:59:01;28.00;;;17.23;;
32633;SDS011;19043;51.012;5.648;2023-11-22T04:01:26;28.30;;;15.30;;
32633;SDS011;19043;51.012;5.648;2023-11-22T04:03:51;27.90;;;16.58;;
32633;SDS011;19043;51.012;5.648;2023-11-22T04:06:17;28.55;;;16.23;;
32633;SDS011;19043;51.012;5.648;2023-11-22T04:08:46;26.42;;;15.95;;
32633;SDS011;19043;51.012;5.648;2023-11-22T04:11:12;32.97;;;17.13;;
32633;SDS011;19043;51.012;5.648;2023-11-22T04:13:37;29.27;;;16.98;;
32633;SDS011;19043;51.012;5.648;2023-11-22T04:16:03;33.33;;;16.63;;
32633;SDS011;19043;51.012;5.648;2023-11-22T04:18:28;30.40;;;18.02;;
32633;SDS011;19043;51.012;5.648;2023-11-22T04:20:53;26.42;;;15.88;;
32633;SDS011;19043;51.012;5.648;2023-11-22T04:23:20;31.58;;;17.83;;
32633;SDS011;19043;51.012;5.648;2023-11-22T04:25:46;29.90;;;16.55;;
32633;SDS011;19043;51.012;5.648;2023-11-22T04:28:11;36.92;;;18.75;;
32633;SDS011;19043;51.012;5.648;2023-11-22T04:30:37;44.80;;;20.33;;
32633;SDS011;19043;51.012;5.648;2023-11-22T04:33:02;44.65;;;21.45;;
32633;SDS011;19043;51.012;5.648;2023-11-22T04:35:27;41.03;;;19.02;;
32633;SDS011;19043;51.012;5.648;2023-11-22T04:37:53;44.00;;;22.15;;
32633;SDS011;19043;51.012;5.648;2023-11-22T04:40:20;40.20;;;20.95;;
32633;SDS011;19043;51.012;5.648;2023-11-22T04:42:45;43.42;;;20.77;;
32633;SDS011;19043;51.012;5.648;2023-11-22T04:45:10;42.90;;;18.83;;
32633;SDS011;19043;51.012;5.648;2023-11-22T04:47:36;39.42;;;19.85;;
32633;SDS011;19043;51.012;5.648;2023-11-22T04:50:01;43.05;;;20.00;;
32633;SDS011;19043;51.012;5.648;2023-11-22T04:52:26;44.85;;;21.67;;
32633;SDS011;19043;51.012;5.648;2023-11-22T04:54:51;43.42;;;21.30;;
32633;SDS011;19043;51.012;5.648;2023-11-22T04:57:17;46.75;;;21.23;;
32633;SDS011;19043;51.012;5.648;2023-11-22T04:59:42;53.17;;;22.30;;
32633;SDS011;19043;51.012;5.648;2023-11-22T05:02:07;52.08;;;23.48;;
32633;SDS011;19043;51.012;5.648;2023-11-22T05:04:33;47.35;;;22.98;;
32633;SDS011;19043;51.012;5.648;2023-11-22T05:06:58;51.70;;;23.98;;
32633;SDS011;19043;51.012;5.648;2023-11-22T05:09:23;51.88;;;25.30;;
32633;SDS011;19043;51.012;5.648;2023-11-22T05:11:49;46.50;;;24.25;;
32633;SDS011;19043;51.012;5.648;2023-11-22T05:14:14;49.70;;;23.30;;
32633;SDS011;19043;51.012;5.648;2023-11-22T05:16:39;50.42;;;23.48;;
32633;SDS011;19043;51.012;5.648;2023-11-22T05:19:04;49.45;;;22.55;;
32633;SDS011;19043;51.012;5.648;2023-11-22T05:21:30;48.20;;;24.45;;
32633;SDS011;19043;51.012;5.648;2023-11-22T05:23:55;54.95;;;24.13;;
32633;SDS011;19043;51.012;5.648;2023-11-22T05:26:21;42.45;;;21.85;;
32633;SDS011;19043;51.012;5.648;2023-11-22T05:28:47;50.22;;;24.42;;
32633;SDS011;19043;51.012;5.648;2023-11-22T05:31:12;48.63;;;23.85;;
32633;SDS011;19043;51.012;5.648;2023-11-22T05:33:38;52.75;;;24.83;;
32633;SDS011;19043;51.012;5.648;2023-11-22T05:36:03;57.10;;;24.48;;
32633;SDS011;19043;51.012;5.648;2023-11-22T05:38:28;52.85;;;25.50;;
32633;SDS011;19043;51.012;5.648;2023-11-22T05:40:53;57.72;;;26.88;;
32633;SDS011;19043;51.012;5.648;2023-11-22T05:43:19;54.50;;;24.52;;
32633;SDS011;19043;51.012;5.648;2023-11-22T05:45:50;48.08;;;22.95;;
32633;SDS011;19043;51.012;5.648;2023-11-22T05:48:15;54.25;;;23.17;;
32633;SDS011;19043;51.012;5.648;2023-11-22T05:50:40;51.78;;;24.15;;
32633;SDS011;19043;51.012;5.648;2023-11-22T05:53:06;49.70;;;23.63;;
32633;SDS011;19043;51.012;5.648;2023-11-22T05:55:31;51.83;;;25.40;;
32633;SDS011;19043;51.012;5.648;2023-11-22T05:57:57;55.05;;;23.52;;
32633;SDS011;19043;51.012;5.648;2023-11-22T06:00:22;49.45;;;22.17;;
32633;SDS011;19043;51.012;5.648;2023-11-22T06:02:47;51.45;;;23.85;;
32633;SDS011;19043;51.012;5.648;2023-11-22T06:05:12;40.47;;;20.98;;
32633;SDS011;19043;51.012;5.648;2023-11-22T06:07:38;44.45;;;23.33;;
32633;SDS011;19043;51.012;5.648;2023-11-22T06:10:03;54.60;;;24.02;;
32633;SDS011;19043;51.012;5.648;2023-11-22T06:12:28;49.22;;;24.88;;
32633;SDS011;19043;51.012;5.648;2023-11-22T06:14:53;58.35;;;25.33;;
32633;SDS011;19043;51.012;5.648;2023-11-22T06:17:19;50.20;;;23.73;;
32633;SDS011;19043;51.012;5.648;2023-11-22T06:19:45;46.17;;;23.77;;
32633;SDS011;19043;51.012;5.648;2023-11-22T06:22:10;52.63;;;25.35;;
32633;SDS011;19043;51.012;5.648;2023-11-22T06:24:36;55.65;;;24.77;;
32633;SDS011;19043;51.012;5.648;2023-11-22T06:27:01;45.30;;;23.65;;
32633;SDS011;19043;51.012;5.648;2023-11-22T06:29:26;51.33;;;24.95;;
32633;SDS011;19043;51.012;5.648;2023-11-22T06:31:52;46.88;;;24.33;;
32633;SDS011;19043;51.012;5.648;2023-11-22T06:34:17;54.60;;;25.52;;
32633;SDS011;19043;51.012;5.648;2023-11-22T06:36:42;44.78;;;23.60;;
32633;SDS011;19043;51.012;5.648;2023-11-22T06:39:08;45.10;;;24.67;;
32633;SDS011;19043;51.012;5.648;2023-11-22T06:41:34;51.25;;;24.77;;
32633;SDS011;19043;51.012;5.648;2023-11-22T06:43:59;46.08;;;25.27;;
32633;SDS011;19043;51.012;5.648;2023-11-22T06:46:24;46.13;;;25.13;;
32633;SDS011;19043;51.012;5.648;2023-11-22T06:48:50;46.75;;;24.85;;
32633;SDS011;19043;51.012;5.648;2023-11-22T06:51:15;46.53;;;23.83;;
32633;SDS011;19043;51.012;5.648;2023-11-22T06:53:40;44.92;;;23.35;;
32633;SDS011;19043;51.012;5.648;2023-11-22T06:56:06;47.92;;;24.13;;
32633;SDS011;19043;51.012;5.648;2023-11-22T06:58:31;46.22;;;23.02;;
32633;SDS011;19043;51.012;5.648;2023-11-22T07:00:56;46.53;;;24.33;;
32633;SDS011;19043;51.012;5.648;2023-11-22T07:03:21;42.50;;;22.35;;
32633;SDS011;19043;51.012;5.648;2023-11-22T07:05:47;48.33;;;24.48;;
32633;SDS011;19043;51.012;5.648;2023-11-22T07:08:12;47.80;;;23.55;;
32633;SDS011;19043;51.012;5.648;2023-11-22T07:10:37;47.70;;;23.40;;
32633;SDS011;19043;51.012;5.648;2023-11-22T07:13:03;48.90;;;25.48;;
32633;SDS011;19043;51.012;5.648;2023-11-22T07:15:28;50.70;;;23.67;;
32633;SDS011;19043;51.012;5.648;2023-11-22T07:17:53;56.50;;;26.20;;
32633;SDS011;19043;51.012;5.648;2023-11-22T07:20:19;49.92;;;24.70;;
32633;SDS011;19043;51.012;5.648;2023-11-22T07:22:45;49.47;;;23.25;;
32633;SDS011;19043;51.012;5.648;2023-11-22T07:25:10;48.45;;;23.70;;
32633;SDS011;19043;51.012;5.648;2023-11-22T07:27:45;49.95;;;24.88;;
32633;SDS011;19043;51.012;5.648;2023-11-22T07:30:12;44.63;;;22.85;;
32633;SDS011;19043;51.012;5.648;2023-11-22T07:32:38;47.75;;;23.88;;
32633;SDS011;19043;51.012;5.648;2023-11-22T07:35:04;42.08;;;22.02;;
32633;SDS011;19043;51.012;5.648;2023-11-22T07:37:30;51.88;;;24.63;;
32633;SDS011;19043;51.012;5.648;2023-11-22T07:39:56;53.10;;;24.70;;
32633;SDS011;19043;51.012;5.648;2023-11-22T07:42:22;48.20;;;23.70;;
32633;SDS011;19043;51.012;5.648;2023-11-22T07:44:47;52.10;;;23.83;;
32633;SDS011;19043;51.012;5.648;2023-11-22T07:47:13;51.72;;;24.33;;
32633;SDS011;19043;51.012;5.648;2023-11-22T07:49:39;49.97;;;23.52;;
32633;SDS011;19043;51.012;5.648;2023-11-22T07:52:04;59.95;;;26.90;;
32633;SDS011;19043;51.012;5.648;2023-11-22T07:54:30;49.85;;;25.02;;
32633;SDS011;19043;51.012;5.648;2023-11-22T07:56:56;53.40;;;22.98;;
32633;SDS011;19043;51.012;5.648;2023-11-22T07:59:21;53.95;;;26.45;;
32633;SDS011;19043;51.012;5.648;2023-11-22T08:01:46;50.80;;;24.85;;
32633;SDS011;19043;51.012;5.648;2023-11-22T08:04:15;43.85;;;23.30;;
32633;SDS011;19043;51.012;5.648;2023-11-22T08:06:41;50.72;;;25.02;;
32633;SDS011;19043;51.012;5.648;2023-11-22T08:09:07;45.42;;;23.55;;
32633;SDS011;19043;51.012;5.648;2023-11-22T08:11:34;52.13;;;25.27;;
32633;SDS011;19043;51.012;5.648;2023-11-22T08:14:00;51.38;;;25.33;;
32633;SDS011;19043;51.012;5.648;2023-11-22T08:16:26;54.53;;;25.85;;
32633;SDS011;19043;51.012;5.648;2023-11-22T08:18:52;47.53;;;24.38;;
32633;SDS011;19043;51.012;5.648;2023-11-22T08:21:17;49.38;;;24.63;;
32633;SDS011;19043;51.012;5.648;2023-11-22T08:23:43;47.00;;;24.17;;
32633;SDS011;19043;51.012;5.648;2023-11-22T08:26:08;43.97;;;23.88;;
32633;SDS011;19043;51.012;5.648;2023-11-22T08:28:34;48.05;;;24.17;;
32633;SDS011;19043;51.012;5.648;2023-11-22T08:30:59;41.42;;;22.58;;
32633;SDS011;19043;51.012;5.648;2023-11-22T08:33:25;53.60;;;24.67;;
32633;SDS011;19043;51.012;5.648;2023-11-22T08:35:51;47.78;;;24.63;;
32633;SDS011;19043;51.012;5.648;2023-11-22T08:38:23;48.95;;;24.58;;
32633;SDS011;19043;51.012;5.648;2023-11-22T08:40:48;45.42;;;24.80;;
32633;SDS011;19043;51.012;5.648;2023-11-22T08:43:14;48.17;;;24.60;;
32633;SDS011;19043;51.012;5.648;2023-11-22T08:45:39;44.38;;;24.85;;
32633;SDS011;19043;51.012;5.648;2023-11-22T08:48:04;43.23;;;23.63;;
32633;SDS011;19043;51.012;5.648;2023-11-22T08:50:29;48.83;;;26.53;;
32633;SDS011;19043;51.012;5.648;2023-11-22T08:52:55;47.13;;;24.92;;
32633;SDS011;19043;51.012;5.648;2023-11-22T08:55:22;51.15;;;24.73;;
32633;SDS011;19043;51.012;5.648;2023-11-22T08:57:49;50.38;;;24.45;;
32633;SDS011;19043;51.012;5.648;2023-11-22T09:00:20;49.92;;;26.05;;
32633;SDS011;19043;51.012;5.648;2023-11-22T09:02:52;50.30;;;26.48;;
32633;SDS011;19043;51.012;5.648;2023-11-22T09:05:24;54.72;;;26.15;;
32633;SDS011;19043;51.012;5.648;2023-11-22T09:07:49;48.50;;;23.73;;
32633;SDS011;19043;51.012;5.648;2023-11-22T09:10:20;45.42;;;23.92;;
32633;SDS011;19043;51.012;5.648;2023-11-22T09:12:46;47.45;;;24.38;;
32633;SDS011;19043;51.012;5.648;2023-11-22T09:15:13;37.58;;;22.05;;
32633;SDS011;19043;51.012;5.648;2023-11-22T09:17:41;43.00;;;24.45;;
32633;SDS011;19043;51.012;5.648;2023-11-22T09:20:14;41.65;;;23.33;;
32633;SDS011;19043;51.012;5.648;2023-11-22T09:22:46;40.58;;;23.35;;
32633;SDS011;19043;51.012;5.648;2023-11-22T09:25:17;41.20;;;23.52;;
32633;SDS011;19043;51.012;5.648;2023-11-22T09:27:50;39.45;;;22.25;;
32633;SDS011;19043;51.012;5.648;2023-11-22T09:30:18;44.35;;;24.17;;
32633;SDS011;19043;51.012;5.648;2023-11-22T09:32:57;40.13;;;23.00;;
32633;SDS011;19043;51.012;5.648;2023-11-22T09:35:22;41.75;;;23.13;;
32633;SDS011;19043;51.012;5.648;2023-11-22T09:37:47;37.40;;;22.63;;
32633;SDS011;19043;51.012;5.648;2023-11-22T09:40:13;33.47;;;21.48;;
32633;SDS011;19043;51.012;5.648;2023-11-22T09:42:42;36.88;;;20.98;;
32633;SDS011;19043;51.012;5.648;2023-11-22T09:45:08;33.33;;;21.35;;
32633;SDS011;19043;51.012;5.648;2023-11-22T09:47:33;31.80;;;20.15;;
32633;SDS011;19043;51.012;5.648;2023-11-22T09:50:00;33.70;;;20.98;;
32633;SDS011;19043;51.012;5.648;2023-11-22T09:52:30;34.95;;;20.60;;
32633;SDS011;19043;51.012;5.648;2023-11-22T09:54:58;33.47;;;20.15;;
32633;SDS011;19043;51.012;5.648;2023-11-22T09:57:23;28.75;;;18.80;;
32633;SDS011;19043;51.012;5.648;2023-11-22T09:59:49;32.83;;;19.05;;
32633;SDS011;19043;51.012;5.648;2023-11-22T10:02:17;33.28;;;20.90;;
32633;SDS011;19043;51.012;5.648;2023-11-22T10:04:43;28.27;;;17.88;;
32633;SDS011;19043;51.012;5.648;2023-11-22T10:07:08;32.15;;;20.15;;
32633;SDS011;19043;51.012;5.648;2023-11-22T10:09:35;35.03;;;20.05;;
32633;SDS011;19043;51.012;5.648;2023-11-22T10:12:02;33.70;;;20.05;;
32633;SDS011;19043;51.012;5.648;2023-11-22T10:14:29;28.98;;;18.75;;
32633;SDS011;19043;51.012;5.648;2023-11-22T10:16:57;31.75;;;18.52;;
32633;SDS011;19043;51.012;5.648;2023-11-22T10:19:23;32.85;;;19.95;;
32633;SDS011;19043;51.012;5.648;2023-11-22T10:22:12;31.83;;;19.02;;
32633;SDS011;19043;51.012;5.648;2023-11-22T10:24:42;28.35;;;17.48;;
32633;SDS011;19043;51.012;5.648;2023-11-22T10:27:08;30.17;;;19.50;;
32633;SDS011;19043;51.012;5.648;2023-11-22T10:29:35;28.92;;;16.55;;
32633;SDS011;19043;51.012;5.648;2023-11-22T10:32:01;26.58;;;17.05;;
32633;SDS011;19043;51.012;5.648;2023-11-22T10:34:28;25.63;;;15.48;;
32633;SDS011;19043;51.012;5.648;2023-11-22T10:36:55;24.58;;;15.55;;
32633;SDS011;19043;51.012;5.648;2023-11-22T10:39:20;25.75;;;16.98;;
32633;SDS011;19043;51.012;5.648;2023-11-22T10:41:46;24.60;;;15.75;;
32633;SDS011;19043;51.012;5.648;2023-11-22T10:44:11;27.35;;;16.30;;
32633;SDS011;19043;51.012;5.648;2023-11-22T10:46:37;27.50;;;16.83;;
32633;SDS011;19043;51.012;5.648;2023-11-22T10:49:04;27.65;;;16.20;;
32633;SDS011;19043;51.012;5.648;2023-11-22T10:51:30;29.50;;;17.95;;
32633;SDS011;19043;51.012;5.648;2023-11-22T10:53:56;28.67;;;17.00;;
32633;SDS011;19043;51.012;5.648;2023-11-22T10:56:23;31.20;;;18.15;;
32633;SDS011;19043;51.012;5.648;2023-11-22T10:58:52;29.08;;;17.77;;
32633;SDS011;19043;51.012;5.648;2023-11-22T11:01:20;22.98;;;15.00;;
32633;SDS011;19043;51.012;5.648;2023-11-22T11:04:29;27.80;;;16.80;;
32633;SDS011;19043;51.012;5.648;2023-11-22T11:06:39;33.38;;;17.55;;
32633;SDS011;19043;51.012;5.648;2023-11-22T11:09:06;28.83;;;17.52;;
32633;SDS011;19043;51.012;5.648;2023-11-22T11:11:34;26.27;;;16.90;;
32633;SDS011;19043;51.012;5.648;2023-11-22T11:13:59;27.92;;;16.33;;
32633;SDS011;19043;51.012;5.648;2023-11-22T11:16:25;21.95;;;15.75;;
32633;SDS011;19043;51.012;5.648;2023-11-22T11:18:51;29.90;;;19.08;;
32633;SDS011;19043;51.012;5.648;2023-11-22T11:21:17;33.63;;;19.45;;
32633;SDS011;19043;51.012;5.648;2023-11-22T11:23:44;29.33;;;18.10;;
32633;SDS011;19043;51.012;5.648;2023-11-22T11:26:13;33.63;;;20.40;;
32633;SDS011;19043;51.012;5.648;2023-11-22T11:28:44;31.10;;;20.45;;
32633;SDS011;19043;51.012;5.648;2023-11-22T11:31:09;37.33;;;22.05;;
32633;SDS011;19043;51.012;5.648;2023-11-22T11:33:36;28.60;;;18.48;;
32633;SDS011;19043;51.012;5.648;2023-11-22T11:38:50;27.90;;;18.73;;
32633;SDS011;19043;51.012;5.648;2023-11-22T11:41:16;29.00;;;18.75;;
32633;SDS011;19043;51.012;5.648;2023-11-22T11:43:44;30.75;;;18.60;;
32633;SDS011;19043;51.012;5.648;2023-11-22T11:46:16;29.40;;;17.85;;
32633;SDS011;19043;51.012;5.648;2023-11-22T11:48:45;27.35;;;16.60;;
32633;SDS011;19043;51.012;5.648;2023-11-22T11:51:16;28.05;;;17.70;;
32633;SDS011;19043;51.012;5.648;2023-11-22T11:53:42;34.30;;;20.38;;
32633;SDS011;19043;51.012;5.648;2023-11-22T11:56:07;32.28;;;17.48;;
32633;SDS011;19043;51.012;5.648;2023-11-22T11:58:33;25.98;;;16.58;;
32633;SDS011;19043;51.012;5.648;2023-11-22T12:00:59;22.02;;;14.68;;
32633;SDS011;19043;51.012;5.648;2023-11-22T12:03:24;23.40;;;14.30;;
32633;SDS011;19043;51.012;5.648;2023-11-22T12:05:49;18.55;;;11.27;;
32633;SDS011;19043;51.012;5.648;2023-11-22T12:08:14;16.60;;;11.05;;
32633;SDS011;19043;51.012;5.648;2023-11-22T12:10:41;18.17;;;10.75;;
32633;SDS011;19043;51.012;5.648;2023-11-22T12:13:06;20.48;;;13.02;;
32633;SDS011;19043;51.012;5.648;2023-11-22T12:15:33;17.58;;;10.82;;
32633;SDS011;19043;51.012;5.648;2023-11-22T12:17:58;18.52;;;11.07;;
32633;SDS011;19043;51.012;5.648;2023-11-22T12:20:24;18.40;;;11.65;;
32633;SDS011;19043;51.012;5.648;2023-11-22T12:22:51;14.85;;;10.63;;
32633;SDS011;19043;51.012;5.648;2023-11-22T12:25:16;16.52;;;11.18;;
32633;SDS011;19043;51.012;5.648;2023-11-22T12:27:42;20.80;;;12.82;;
32633;SDS011;19043;51.012;5.648;2023-11-22T12:30:08;18.15;;;12.80;;
32633;SDS011;19043;51.012;5.648;2023-11-22T12:32:34;23.60;;;12.75;;
32633;SDS011;19043;51.012;5.648;2023-11-22T12:34:59;25.20;;;12.90;;
32633;SDS011;19043;51.012;5.648;2023-11-22T12:37:24;16.33;;;11.27;;
32633;SDS011;19043;51.012;5.648;2023-11-22T12:39:51;21.60;;;13.23;;
32633;SDS011;19043;51.012;5.648;2023-11-22T12:42:17;21.77;;;12.65;;
32633;SDS011;19043;51.012;5.648;2023-11-22T12:44:49;20.63;;;12.35;;
32633;SDS011;19043;51.012;5.648;2023-11-22T12:47:14;20.70;;;11.80;;
32633;SDS011;19043;51.012;5.648;2023-11-22T12:49:44;17.85;;;12.05;;
32633;SDS011;19043;51.012;5.648;2023-11-22T12:52:12;22.20;;;12.77;;
32633;SDS011;19043;51.012;5.648;2023-11-22T12:54:39;16.55;;;10.77;;
32633;SDS011;19043;51.012;5.648;2023-11-22T12:57:10;17.63;;;11.13;;
32633;SDS011;19043;51.012;5.648;2023-11-22T12:59:36;19.92;;;12.13;;
32633;SDS011;19043;51.012;5.648;2023-11-22T13:02:01;20.90;;;11.97;;
32633;SDS011;19043;51.012;5.648;2023-11-22T13:04:27;17.48;;;11.45;;
32633;SDS011;19043;51.012;5.648;2023-11-22T13:06:53;18.88;;;11.45;;
32633;SDS011;19043;51.012;5.648;2023-11-22T13:09:18;17.70;;;10.75;;
32633;SDS011;19043;51.012;5.648;2023-11-22T13:11:44;16.37;;;10.50;;
32633;SDS011;19043;51.012;5.648;2023-11-22T13:14:09;18.33;;;10.90;;
32633;SDS011;19043;51.012;5.648;2023-11-22T13:16:34;17.17;;;10.95;;
32633;SDS011;19043;51.012;5.648;2023-11-22T13:19:01;19.13;;;10.25;;
32633;SDS011;19043;51.012;5.648;2023-11-22T13:21:27;17.65;;;11.10;;
32633;SDS011;19043;51.012;5.648;2023-11-22T13:23:52;20.37;;;11.83;;
32633;SDS011;19043;51.012;5.648;2023-11-22T13:26:17;22.63;;;13.57;;
32633;SDS011;19043;51.012;5.648;2023-11-22T13:28:42;22.52;;;13.48;;
32633;SDS011;19043;51.012;5.648;2023-11-22T13:31:08;21.83;;;13.20;;
32633;SDS011;19043;51.012;5.648;2023-11-22T13:33:33;23.38;;;12.25;;
32633;SDS011;19043;51.012;5.648;2023-11-22T13:35:58;19.40;;;12.23;;
32633;SDS011;19043;51.012;5.648;2023-11-22T13:38:24;19.42;;;12.75;;
32633;SDS011;19043;51.012;5.648;2023-11-22T13:40:49;19.50;;;12.77;;
32633;SDS011;19043;51.012;5.648;2023-11-22T13:43:14;20.10;;;12.07;;
32633;SDS011;19043;51.012;5.648;2023-11-22T13:45:40;23.77;;;14.90;;
32633;SDS011;19043;51.012;5.648;2023-11-22T13:48:06;24.02;;;14.38;;
32633;SDS011;19043;51.012;5.648;2023-11-22T13:50:34;22.80;;;15.10;;
32633;SDS011;19043;51.012;5.648;2023-11-22T13:52:59;23.38;;;14.52;;
32633;SDS011;19043;51.012;5.648;2023-11-22T13:55:25;21.88;;;13.60;;
32633;SDS011;19043;51.012;5.648;2023-11-22T13:57:54;21.50;;;13.10;;
32633;SDS011;19043;51.012;5.648;2023-11-22T14:00:21;22.30;;;14.00;;
32633;SDS011;19043;51.012;5.648;2023-11-22T14:02:50;23.30;;;14.07;;
32633;SDS011;19043;51.012;5.648;2023-11-22T14:05:16;23.33;;;13.98;;
32633;SDS011;19043;51.012;5.648;2023-11-22T14:07:42;25.63;;;13.98;;
32633;SDS011;19043;51.012;5.648;2023-11-22T14:10:08;22.08;;;13.52;;
32633;SDS011;19043;51.012;5.648;2023-11-22T14:12:34;21.52;;;13.07;;
32633;SDS011;19043;51.012;5.648;2023-11-22T14:15:00;24.25;;;12.55;;
32633;SDS011;19043;51.012;5.648;2023-11-22T14:17:25;25.15;;;13.23;;